createdAt,value
2022-12-13T00:01:55.092Z,0.67
2022-12-13T00:05:04.005Z,1.03
2022-12-13T00:08:17.181Z,0.87
2022-12-13T00:11:25.648Z,1.40
2022-12-13T00:14:33.919Z,1.33
2022-12-13T00:17:45.241Z,1.23
2022-12-13T00:20:53.577Z,1.40
2022-12-13T00:24:03.289Z,1.13
2022-12-13T00:27:11.783Z,1.27
2022-12-13T00:30:20.434Z,1.40
2022-12-13T00:33:30.801Z,1.27
2022-12-13T00:36:40.154Z,1.27
2022-12-13T00:39:49.051Z,1.30
2022-12-13T00:42:57.401Z,1.27
2022-12-13T00:46:05.954Z,1.20
2022-12-13T00:49:15.766Z,0.90
2022-12-13T00:52:25.528Z,1.17
2022-12-13T00:55:39.262Z,0.97
2022-12-13T00:58:51.866Z,1.30
2022-12-13T01:02:00.725Z,1.07
2022-12-13T01:05:11.304Z,1.00
2022-12-13T01:08:21.319Z,1.30
2022-12-13T01:11:30.957Z,1.30
2022-12-13T01:14:42.982Z,1.23
2022-12-13T01:17:52.122Z,1.03
2022-12-13T01:21:04.814Z,1.40
2022-12-13T01:24:13.442Z,1.40
2022-12-13T01:27:21.795Z,1.00
2022-12-13T01:30:31.421Z,1.00
2022-12-13T01:33:40.323Z,1.20
2022-12-13T01:36:50.256Z,1.27
2022-12-13T01:40:00.799Z,1.23
2022-12-13T01:43:14.830Z,1.30
2022-12-13T01:46:23.732Z,1.10
2022-12-13T01:49:32.039Z,1.27
2022-12-13T01:52:43.660Z,1.20
2022-12-13T01:55:55.316Z,1.13
2022-12-13T01:59:05.542Z,0.90
2022-12-13T02:02:16.090Z,1.00
2022-12-13T02:05:30.018Z,1.10
2022-12-13T02:08:41.511Z,0.80
2022-12-13T02:11:50.542Z,0.83
2022-12-13T02:15:11.884Z,1.00
2022-12-13T02:18:45.501Z,1.10
2022-12-13T02:22:06.058Z,0.93
2022-12-13T02:25:44.707Z,0.87
2022-12-13T02:29:11.175Z,0.83
2022-12-13T02:32:29.810Z,1.10
2022-12-13T02:35:43.977Z,0.77
2022-12-13T02:38:59.323Z,0.80
2022-12-13T02:42:21.366Z,0.90
2022-12-13T02:45:34.677Z,1.07
2022-12-13T02:48:48.254Z,1.00
2022-12-13T02:51:58.306Z,1.00
2022-12-13T02:55:08.512Z,1.10
2022-12-13T02:58:21.180Z,0.90
2022-12-13T03:01:43.168Z,0.83
2022-12-13T03:05:21.904Z,0.87
2022-12-13T03:08:35.038Z,1.10
2022-12-13T03:12:17.870Z,0.90
2022-12-13T03:15:30.686Z,1.00
2022-12-13T03:18:40.932Z,0.93
2022-12-13T03:21:51.466Z,1.00
2022-12-13T03:25:02.306Z,0.93
2022-12-13T03:28:10.574Z,0.80
2022-12-13T03:31:21.436Z,0.90
2022-12-13T03:34:44.699Z,1.10
2022-12-13T03:37:56.278Z,0.93
2022-12-13T03:41:07.409Z,1.10
2022-12-13T03:44:15.746Z,1.23
2022-12-13T03:47:24.124Z,0.97
2022-12-13T03:50:32.443Z,1.10
2022-12-13T03:53:42.144Z,0.87
2022-12-13T03:56:50.624Z,0.97
2022-12-13T04:00:00.161Z,0.67
2022-12-13T04:03:08.499Z,0.80
2022-12-13T04:06:21.915Z,0.83
2022-12-13T04:09:34.187Z,1.00
2022-12-13T04:13:04.098Z,0.73
2022-12-13T04:16:13.699Z,1.20
2022-12-13T04:19:23.005Z,1.07
2022-12-13T04:22:32.868Z,1.90
2022-12-13T04:25:42.887Z,3.80
2022-12-13T04:28:54.656Z,1.43
2022-12-13T04:32:04.971Z,1.13
2022-12-13T04:35:13.422Z,1.20
2022-12-13T04:38:22.578Z,0.93
2022-12-13T04:41:37.342Z,1.20
2022-12-13T04:44:46.535Z,1.03
2022-12-13T04:47:54.773Z,0.83
2022-12-13T04:51:03.291Z,1.00
2022-12-13T04:54:24.078Z,0.87
2022-12-13T04:57:34.136Z,0.60
2022-12-13T05:00:44.532Z,0.40
2022-12-13T05:03:54.035Z,1.00
2022-12-13T05:07:04.728Z,0.80
2022-12-13T05:10:33.857Z,0.70
2022-12-13T05:13:44.032Z,0.90
2022-12-13T05:16:53.371Z,0.90
2022-12-13T05:20:01.882Z,0.73
2022-12-13T05:23:11.978Z,0.90
2022-12-13T05:26:22.808Z,0.70
2022-12-13T05:29:32.436Z,0.73
2022-12-13T05:32:44.099Z,0.90
2022-12-13T05:35:59.167Z,0.67
2022-12-13T05:39:28.623Z,0.87
2022-12-13T05:42:40.087Z,0.73
2022-12-13T05:45:50.471Z,0.73
2022-12-13T05:48:59.075Z,1.10
2022-12-13T05:52:10.013Z,0.90
2022-12-13T05:55:19.293Z,0.60
2022-12-13T05:58:28.946Z,0.90
2022-12-13T06:01:47.264Z,0.97
2022-12-13T06:04:55.508Z,0.93
2022-12-13T06:08:03.779Z,0.83
2022-12-13T06:11:32.728Z,0.73
2022-12-13T06:14:41.062Z,1.10
2022-12-13T06:17:50.709Z,0.93
2022-12-13T06:21:00.311Z,0.83
2022-12-13T06:24:08.866Z,0.87
2022-12-13T06:27:17.928Z,1.00
2022-12-13T06:30:26.196Z,1.00
2022-12-13T06:33:36.771Z,0.70
2022-12-13T06:36:45.325Z,0.90
2022-12-13T06:39:53.532Z,1.03
2022-12-13T06:43:02.142Z,0.70
2022-12-13T06:46:10.726Z,0.83
2022-12-13T06:49:20.891Z,1.20
2022-12-13T06:52:30.580Z,0.90
2022-12-13T06:55:41.676Z,0.77
2022-12-13T06:58:50.008Z,1.10
2022-12-13T07:02:03.762Z,0.90
2022-12-13T07:05:14.359Z,1.10
2022-12-13T07:08:23.018Z,1.13
2022-12-13T07:11:34.234Z,1.07
2022-12-13T07:14:42.915Z,1.10
2022-12-13T07:17:52.845Z,1.00
2022-12-13T07:21:05.215Z,1.10
2022-12-13T07:24:13.446Z,0.80
2022-12-13T07:27:21.669Z,1.47
2022-12-13T07:30:33.510Z,1.00
2022-12-13T07:33:43.312Z,1.20
2022-12-13T07:36:52.961Z,0.93
2022-12-13T07:40:04.249Z,1.20
2022-12-13T07:43:17.269Z,0.90
2022-12-13T07:46:32.732Z,1.83
2022-12-13T07:49:48.275Z,0.80
2022-12-13T07:52:58.065Z,1.27
2022-12-13T07:56:07.996Z,1.23
2022-12-13T07:59:28.299Z,1.00
2022-12-13T08:02:38.828Z,1.00
2022-12-13T08:05:47.297Z,0.93
2022-12-13T08:08:58.561Z,0.83
2022-12-13T08:12:08.631Z,0.93
2022-12-13T08:15:17.440Z,1.37
2022-12-13T08:18:25.719Z,1.37
2022-12-13T08:21:54.460Z,1.20
2022-12-13T08:25:09.601Z,0.93
2022-12-13T08:28:18.534Z,0.80
2022-12-13T08:31:33.797Z,1.33
2022-12-13T08:34:42.444Z,0.90
2022-12-13T08:37:50.764Z,1.40
2022-12-13T08:41:01.659Z,0.97
2022-12-13T08:44:09.996Z,1.00
2022-12-13T08:47:23.352Z,1.03
2022-12-13T08:50:32.698Z,1.30
2022-12-13T08:53:43.283Z,1.50
2022-12-13T08:56:53.332Z,1.57
2022-12-13T09:00:01.583Z,1.90
2022-12-13T09:03:11.557Z,1.60
2022-12-13T09:06:24.176Z,1.90
2022-12-13T09:09:33.550Z,1.77
2022-12-13T09:12:46.274Z,2.10
2022-12-13T09:15:55.378Z,2.07
2022-12-13T09:19:25.202Z,1.73
2022-12-13T09:22:34.350Z,2.10
2022-12-13T09:25:48.597Z,1.90
2022-12-13T09:29:10.995Z,2.33
2022-12-13T09:32:20.053Z,2.57
2022-12-13T09:35:28.314Z,2.37
2022-12-13T09:38:38.369Z,2.07
2022-12-13T09:41:50.649Z,2.20
2022-12-13T09:45:05.624Z,2.37
2022-12-13T09:48:22.439Z,2.13
2022-12-13T09:51:43.150Z,2.20
2022-12-13T09:54:57.429Z,2.33
2022-12-13T09:58:10.262Z,2.40
2022-12-13T10:01:27.871Z,2.57
2022-12-13T10:04:39.809Z,2.10
2022-12-13T10:07:48.886Z,2.30
2022-12-13T10:10:57.213Z,2.30
2022-12-13T10:14:11.520Z,2.27
2022-12-13T10:17:23.419Z,2.90
2022-12-13T10:20:32.931Z,3.03
2022-12-13T10:24:22.660Z,2.70
2022-12-13T10:27:15.096Z,2.50
2022-12-13T10:30:28.753Z,2.50
2022-12-13T10:33:42.052Z,2.30
2022-12-13T10:36:50.552Z,2.30
2022-12-13T10:39:59.699Z,2.40
2022-12-13T10:43:10.496Z,2.37
2022-12-13T10:46:25.073Z,2.53
2022-12-13T10:49:40.601Z,2.07
2022-12-13T10:52:49.195Z,1.73
2022-12-13T10:56:02.109Z,2.00
2022-12-13T10:59:24.107Z,2.00
2022-12-13T11:02:35.652Z,2.27
2022-12-13T11:05:50.217Z,1.90
2022-12-13T11:09:01.371Z,1.57
2022-12-13T11:12:16.705Z,1.73
2022-12-13T11:15:29.299Z,2.10
2022-12-13T11:18:40.567Z,1.83
2022-12-13T11:21:54.358Z,2.03
2022-12-13T11:25:07.033Z,2.03
2022-12-13T11:28:39.929Z,1.90
2022-12-13T11:31:55.538Z,1.90
2022-12-13T11:35:16.033Z,2.00
2022-12-13T11:38:39.733Z,1.73
2022-12-13T11:41:55.438Z,2.00
2022-12-13T11:45:22.726Z,2.30
2022-12-13T11:48:42.306Z,1.60
2022-12-13T11:51:54.970Z,2.10
2022-12-13T11:55:13.108Z,2.10
2022-12-13T12:02:06.778Z,1.63
2022-12-13T12:05:31.515Z,1.90
2022-12-13T12:08:47.142Z,2.07
2022-12-13T12:12:04.675Z,2.07
2022-12-13T12:15:19.146Z,1.90
2022-12-13T12:18:38.599Z,1.80
2022-12-13T12:22:19.149Z,2.00
2022-12-13T12:25:33.721Z,2.03
2022-12-13T12:29:02.968Z,1.70
2022-12-13T12:32:21.520Z,2.27
2022-12-13T12:35:53.393Z,2.00
2022-12-13T12:39:34.070Z,2.33
2022-12-13T12:43:13.940Z,1.97
2022-12-13T12:47:08.806Z,2.07
2022-12-13T12:50:28.535Z,2.07
2022-12-13T12:53:42.864Z,1.80
2022-12-13T12:56:57.687Z,2.00
2022-12-13T13:00:12.093Z,1.63
2022-12-13T13:03:25.236Z,2.10
2022-12-13T13:06:39.768Z,2.17
2022-12-13T13:09:49.675Z,2.20
2022-12-13T13:13:12.533Z,2.00
2022-12-13T13:16:35.339Z,1.93
2022-12-13T13:19:52.955Z,2.07
2022-12-13T13:23:39.387Z,1.60
2022-12-13T13:26:46.791Z,1.60
2022-12-13T13:30:05.684Z,1.60
2022-12-13T13:33:43.629Z,1.97
2022-12-13T13:36:56.284Z,1.80
2022-12-13T13:40:31.613Z,1.87
2022-12-13T13:43:40.598Z,1.90
2022-12-13T13:47:13.854Z,1.97
2022-12-13T13:51:01.000Z,2.53
2022-12-13T13:54:43.918Z,2.03
2022-12-13T13:58:24.385Z,2.10
2022-12-13T14:02:22.464Z,2.20
2022-12-13T14:05:59.669Z,2.00
2022-12-13T14:09:51.855Z,1.67
2022-12-13T14:13:54.462Z,2.20
2022-12-13T14:17:33.286Z,1.93
2022-12-13T14:20:49.299Z,1.70
2022-12-13T14:24:10.678Z,1.90
2022-12-13T14:27:33.571Z,2.00
2022-12-13T14:30:47.751Z,1.77
2022-12-13T14:34:07.868Z,2.30
2022-12-13T14:37:27.161Z,2.23
2022-12-13T14:40:37.354Z,1.97
2022-12-13T14:43:50.193Z,2.27
2022-12-13T14:47:01.572Z,2.13
2022-12-13T14:50:10.374Z,2.17
2022-12-13T14:53:29.016Z,3.00
2022-12-13T14:56:54.541Z,3.27
2022-12-13T15:00:23.621Z,2.87
2022-12-13T15:03:32.449Z,2.43
2022-12-13T15:06:40.900Z,2.30
2022-12-13T15:09:59.134Z,1.90
2022-12-13T15:13:07.648Z,2.27
2022-12-13T15:16:25.679Z,2.33
2022-12-13T15:19:49.010Z,2.00
2022-12-13T15:23:03.624Z,2.90
2022-12-13T15:26:28.776Z,2.23
2022-12-13T15:29:38.629Z,2.47
2022-12-13T15:33:07.902Z,2.80
2022-12-13T15:36:19.873Z,2.43
2022-12-13T15:39:28.901Z,2.17
2022-12-13T15:42:40.073Z,2.23
2022-12-13T15:45:50.443Z,2.03
2022-12-13T15:49:02.862Z,1.90
2022-12-13T15:52:30.813Z,1.73
2022-12-13T15:55:39.239Z,2.00
2022-12-13T15:58:54.744Z,2.83
2022-12-13T16:02:04.471Z,2.90
2022-12-13T16:05:26.733Z,2.53
2022-12-13T16:08:38.540Z,1.80
2022-12-13T16:11:51.788Z,2.50
2022-12-13T16:15:28.687Z,1.73
2022-12-13T16:18:46.101Z,2.20
2022-12-13T16:21:56.096Z,1.77
2022-12-13T16:25:05.998Z,2.60
2022-12-13T16:28:16.163Z,2.30
2022-12-13T16:31:26.242Z,2.40
2022-12-13T16:34:35.126Z,2.07
2022-12-13T16:37:48.040Z,1.83
2022-12-13T16:41:08.377Z,3.13
2022-12-13T16:44:24.063Z,2.23
2022-12-13T16:47:43.160Z,2.47
2022-12-13T16:50:57.456Z,2.70
2022-12-13T16:54:07.840Z,2.70
2022-12-13T16:57:16.138Z,2.53
2022-12-13T17:00:24.660Z,2.90
2022-12-13T17:03:32.879Z,2.57
2022-12-13T17:06:41.876Z,2.67
2022-12-13T17:09:51.626Z,2.07
2022-12-13T17:13:00.080Z,2.80
2022-12-13T17:16:09.205Z,3.40
2022-12-13T17:19:17.600Z,2.97
2022-12-13T17:22:25.933Z,2.77
2022-12-13T17:25:39.810Z,3.00
2022-12-13T17:28:48.246Z,2.90
2022-12-13T17:31:56.628Z,2.43
2022-12-13T17:35:05.723Z,3.37
2022-12-13T17:38:14.312Z,4.13
2022-12-13T17:41:23.985Z,3.50
2022-12-13T17:44:32.284Z,4.27
2022-12-13T17:47:40.654Z,3.70
2022-12-13T17:50:49.338Z,2.80
2022-12-13T17:53:57.882Z,3.20
2022-12-13T17:57:10.341Z,3.00
2022-12-13T18:00:19.094Z,2.57
2022-12-13T18:03:27.842Z,2.10
2022-12-13T18:06:36.693Z,2.47
2022-12-13T18:09:46.751Z,2.40
2022-12-13T18:12:56.450Z,2.70
2022-12-13T18:16:06.222Z,2.73
2022-12-13T18:19:18.161Z,2.97
2022-12-13T18:22:26.668Z,3.20
2022-12-13T18:25:34.981Z,3.30
2022-12-13T18:28:45.392Z,2.17
2022-12-13T18:31:53.756Z,3.10
2022-12-13T18:35:02.019Z,3.13
2022-12-13T18:38:10.593Z,3.20
2022-12-13T18:41:21.074Z,2.33
2022-12-13T18:44:30.757Z,2.97
2022-12-13T18:47:39.092Z,2.57
2022-12-13T18:50:48.978Z,3.10
2022-12-13T18:53:57.828Z,2.83
2022-12-13T18:57:07.858Z,2.30
2022-12-13T19:00:18.148Z,2.40
2022-12-13T19:03:27.403Z,2.90
2022-12-13T19:06:35.938Z,3.00
2022-12-13T19:09:44.272Z,2.77
2022-12-13T19:13:03.264Z,2.83
2022-12-13T19:16:14.734Z,2.70
2022-12-13T19:19:23.101Z,3.20
2022-12-13T19:22:31.969Z,2.83
2022-12-13T19:25:40.352Z,3.20
2022-12-13T19:28:48.620Z,2.53
2022-12-13T19:31:58.354Z,2.83
2022-12-13T19:35:07.520Z,3.07
2022-12-13T19:38:16.251Z,2.93
2022-12-13T19:41:24.640Z,2.80
2022-12-13T19:44:33.007Z,2.90
2022-12-13T19:47:42.678Z,3.23
2022-12-13T19:51:00.372Z,2.57
2022-12-13T19:54:10.565Z,2.53
2022-12-13T19:57:18.860Z,2.80
2022-12-13T20:00:27.553Z,2.80
2022-12-13T20:03:39.514Z,3.47
2022-12-13T20:06:47.943Z,2.17
2022-12-13T20:09:56.939Z,3.60
2022-12-13T20:13:05.722Z,2.40
2022-12-13T20:16:20.174Z,2.33
2022-12-13T20:19:29.905Z,2.57
2022-12-13T20:22:38.311Z,2.37
2022-12-13T20:25:47.190Z,2.50
2022-12-13T20:28:57.254Z,2.97
2022-12-13T20:32:05.996Z,2.07
2022-12-13T20:35:16.836Z,2.70
2022-12-13T20:38:25.266Z,2.00
2022-12-13T20:41:35.387Z,2.40
2022-12-13T20:44:43.853Z,1.90
2022-12-13T20:47:52.160Z,2.20
2022-12-13T20:51:02.990Z,2.00
2022-12-13T20:54:11.408Z,2.03
2022-12-13T20:57:19.696Z,2.03
2022-12-13T21:00:28.032Z,2.03
2022-12-13T21:03:36.477Z,2.07
2022-12-13T21:06:46.180Z,2.30
2022-12-13T21:09:54.556Z,2.23
2022-12-13T21:13:02.821Z,1.87
2022-12-13T21:16:11.306Z,1.87
2022-12-13T21:19:24.441Z,2.03
2022-12-13T21:22:34.169Z,1.67
2022-12-13T21:25:42.560Z,1.77
2022-12-13T21:28:53.995Z,2.13
2022-12-13T21:32:02.500Z,1.63
2022-12-13T21:35:11.869Z,1.97
2022-12-13T21:38:22.044Z,1.77
2022-12-13T21:41:30.585Z,2.27
2022-12-13T21:44:39.110Z,2.10
2022-12-13T21:47:47.433Z,2.43
2022-12-13T21:50:55.673Z,2.50
2022-12-13T21:54:05.665Z,2.40
2022-12-13T21:57:31.314Z,2.93
2022-12-13T22:00:39.641Z,2.30
2022-12-13T22:03:47.936Z,2.80
2022-12-13T22:06:56.311Z,3.27
2022-12-13T22:10:07.268Z,2.90
2022-12-13T22:13:15.864Z,3.23
2022-12-13T22:16:24.181Z,3.13
2022-12-13T22:19:32.483Z,2.87
2022-12-13T22:22:41.875Z,2.97
2022-12-13T22:25:51.588Z,3.90
2022-12-13T22:29:00.019Z,3.40
2022-12-13T22:32:08.337Z,3.50
2022-12-13T22:35:16.842Z,3.50
2022-12-13T22:38:25.442Z,3.47
2022-12-13T22:41:35.401Z,3.33
2022-12-13T22:44:43.740Z,3.90
2022-12-13T22:47:51.999Z,3.47
2022-12-13T22:51:03.817Z,3.43
2022-12-13T22:54:12.270Z,3.50
2022-12-13T22:57:21.948Z,3.43
2022-12-13T23:00:30.807Z,3.23
2022-12-13T23:03:40.654Z,3.87
2022-12-13T23:06:50.181Z,4.53
2022-12-13T23:09:58.388Z,3.57
2022-12-13T23:13:06.972Z,3.90
2022-12-13T23:16:15.243Z,4.30
2022-12-13T23:19:49.022Z,4.73
2022-12-13T23:22:52.985Z,5.50
2022-12-13T23:26:12.657Z,5.60
2022-12-13T23:29:22.237Z,5.90
2022-12-13T23:32:30.463Z,6.83
2022-12-13T23:35:38.623Z,6.07
2022-12-13T23:38:47.330Z,6.60
2022-12-13T23:41:55.604Z,6.63
2022-12-13T23:45:05.778Z,6.97
2022-12-13T23:48:13.933Z,6.87
2022-12-13T23:51:22.257Z,7.00
2022-12-13T23:54:30.493Z,6.40
2022-12-13T23:57:38.708Z,5.37
